Cantonment, Florida
Current Conditions -  °F | °C
As of 1:53 PM on Thursday 30 Oct 2014 (Local Time) from KPNS Reporting Station
Clear Clear  
Wind Chill: 72°   Ceiling: Unl
Heat Index: 72°   Visibility: 10mi
Dew Point: 42°   Wind: 13mph
Humidity: 34%   Direction: 10°N
Pressure: 30"   Gusts: 18mph
Location:  30.61°N, 87.34°W
Report Text: KPNS 301853Z 01011G16KT 10SM CLR 22/06 A3000 RMK AO2 SLP161 T02220056
Loading
Personal Weather Stations






























Interactive Weather Map
Tropical Storm Tracking
New forecast layout! Learn more

10-Day Weather Forecast

Advertisements
Track Severe Weather on mobile